Time;durP1;ratioP1;P1;durP2;ratioP2;P2;SDS_P1;SDS_P2;PMS_P1;PMS_P2;Temp;Humidity;BMP_temperature;BMP_pressure;BME280_temperature;BME280_humidity;BME280_pressure;Samples;Min_cycle;Max_cycle;Signal;HPM_P1;HPM_P2
2023/10/08 00:00:49;;;;;;;7.30;3.80;;;;;;;18.88;69.04;101352.38;6117260;23;20193;-71
2023/10/08 00:03:18;;;;;;;9.23;4.00;;;;;;;18.89;69.01;101346.00;6117540;23;20222;-71
2023/10/08 00:05:47;;;;;;;8.87;4.20;;;;;;;18.90;69.31;101346.84;6117649;23;20240;-67
2023/10/08 00:08:16;;;;;;;7.83;4.10;;;;;;;18.84;68.80;101351.06;6117860;23;20762;-70
2023/10/08 00:10:46;;;;;;;7.50;4.30;;;;;;;18.81;69.47;101356.81;6117319;23;20182;-69
2023/10/08 00:13:15;;;;;;;9.17;4.17;;;;;;;18.82;69.09;101363.88;6117922;23;20182;-70
2023/10/08 00:15:51;;;;;;;9.30;3.87;;;;;;;18.80;69.26;101355.16;6116773;23;20186;-70
2023/10/08 00:18:20;;;;;;;10.37;4.40;;;;;;;18.79;69.62;101348.09;6116333;23;20174;-70
2023/10/08 00:20:54;;;;;;;8.83;4.20;;;;;;;18.77;68.98;101355.50;6117670;23;20182;-71
2023/10/08 00:23:25;;;;;;;8.13;3.90;;;;;;;18.74;69.78;101363.91;6117193;23;20206;-71
2023/10/08 00:25:55;;;;;;;8.73;3.67;;;;;;;18.71;69.76;101362.44;6117051;23;20170;-70
2023/10/08 00:28:23;;;;;;;9.07;4.07;;;;;;;18.73;69.82;101359.56;6116557;23;20268;-70
2023/10/08 00:30:53;;;;;;;8.83;4.23;;;;;;;18.77;69.83;101355.50;6116629;23;20637;-71
2023/10/08 00:33:21;;;;;;;10.63;3.97;;;;;;;18.69;69.97;101364.47;6116404;23;20189;-70
2023/10/08 00:35:49;;;;;;;11.17;4.40;;;;;;;18.64;70.06;101360.66;6117106;23;20586;-69
2023/10/08 00:38:20;;;;;;;10.60;4.07;;;;;;;18.67;69.92;101357.59;6116256;23;20547;-69
2023/10/08 00:40:49;;;;;;;10.40;4.17;;;;;;;18.63;70.05;101353.59;6117259;23;20619;-72
2023/10/08 00:43:34;;;;;;;11.00;4.70;;;;;;;18.61;70.04;101359.16;6116129;23;20198;-72
2023/10/08 00:46:17;;;;;;;7.23;4.47;;;;;;;18.60;70.25;101364.69;6116957;23;20198;-70
2023/10/08 00:48:47;;;;;;;8.73;4.00;;;;;;;18.58;70.19;101366.72;6116617;23;20245;-74
2023/10/08 00:51:25;;;;;;;7.10;3.83;;;;;;;18.57;70.62;101359.66;6117467;23;20182;-71
2023/10/08 00:53:59;;;;;;;8.43;4.00;;;;;;;18.55;70.10;101372.44;6116802;23;20252;-68
2023/10/08 00:56:44;;;;;;;10.73;4.40;;;;;;;18.55;70.00;101377.81;6115597;23;20177;-70
2023/10/08 00:59:15;;;;;;;10.97;3.80;;;;;;;18.54;70.32;101366.22;6114907;23;20519;-69
2023/10/08 01:01:51;;;;;;;7.57;3.80;;;;;;;18.55;70.44;101357.16;6115272;23;20622;-70
2023/10/08 01:04:22;;;;;;;8.77;4.70;;;;;;;18.52;70.24;101354.81;6115742;23;20196;-68
2023/10/08 01:06:54;;;;;;;6.10;3.43;;;;;;;18.50;69.94;101351.47;6088997;23;20724;-71
2023/10/08 01:09:31;;;;;;;8.73;4.23;;;;;;;18.51;69.76;101357.66;6118134;23;20257;-69
2023/10/08 01:12:19;;;;;;;8.90;4.10;;;;;;;18.52;69.47;101353.97;6118181;23;20184;-72
2023/10/08 01:14:50;;;;;;;8.13;4.17;;;;;;;18.50;70.06;101347.94;6117856;23;20253;-71
2023/10/08 01:17:19;;;;;;;10.47;4.67;;;;;;;18.49;69.81;101346.25;6116901;23;20179;-68
2023/10/08 01:19:50;;;;;;;10.83;4.60;;;;;;;18.46;69.53;101352.84;6117536;23;20179;-70
2023/10/08 01:22:21;;;;;;;8.97;4.27;;;;;;;18.48;69.67;101356.16;6117512;23;20273;-71
2023/10/08 01:24:50;;;;;;;8.37;4.33;;;;;;;18.47;69.52;101341.06;6118378;23;20205;-70
2023/10/08 01:27:21;;;;;;;10.70;4.60;;;;;;;18.47;69.29;101337.56;6116461;23;20182;-70
2023/10/08 01:29:50;;;;;;;7.43;4.33;;;;;;;18.45;69.89;101340.44;6117571;23;20201;-69
2023/10/08 01:32:20;;;;;;;10.53;4.77;;;;;;;18.46;69.91;101341.28;6118980;23;20174;-71
2023/10/08 01:34:48;;;;;;;10.33;4.53;;;;;;;18.45;69.70;101347.66;6117869;23;20182;-71
2023/10/08 01:37:17;;;;;;;8.87;3.93;;;;;;;18.42;70.11;101346.16;6118181;23;20183;-70
2023/10/08 01:39:49;;;;;;;8.17;3.97;;;;;;;18.41;69.90;101344.47;6118296;23;20519;-71
2023/10/08 01:42:20;;;;;;;8.83;4.43;;;;;;;18.37;70.20;101352.06;6118246;23;20203;-69
2023/10/08 01:44:50;;;;;;;8.13;4.60;;;;;;;18.37;70.55;101346.69;6117353;23;20759;-71
2023/10/08 01:47:19;;;;;;;10.53;3.70;;;;;;;18.33;70.50;101339.16;6117242;23;20181;-70
2023/10/08 01:49:47;;;;;;;8.50;3.90;;;;;;;18.28;70.42;101339.72;6117416;23;20202;-72
2023/10/08 01:52:20;;;;;;;7.87;4.03;;;;;;;18.28;70.52;101339.72;6118412;23;20265;-71
2023/10/08 01:54:50;;;;;;;8.20;4.43;;;;;;;18.28;70.65;101345.06;6118016;23;20205;-69
2023/10/08 01:57:18;;;;;;;8.90;4.77;;;;;;;18.26;70.49;101349.78;6117704;23;20185;-67
2023/10/08 01:59:45;;;;;;;10.10;4.43;;;;;;;18.23;71.13;101347.44;6117213;23;20599;-70
2023/10/08 02:02:15;;;;;;;8.97;4.83;;;;;;;18.17;71.38;101342.78;6118063;23;20279;-70
2023/10/08 02:04:43;;;;;;;11.40;4.47;;;;;;;18.14;71.43;101343.13;6117778;23;20650;-71
2023/10/08 02:07:13;;;;;;;11.07;4.40;;;;;;;18.11;71.22;101334.59;6116811;23;20505;-70
2023/10/08 02:09:44;;;;;;;8.03;4.50;;;;;;;18.09;71.40;101332.09;6117341;23;20194;-70
2023/10/08 02:12:14;;;;;;;11.83;3.90;;;;;;;18.06;71.91;101335.13;6118138;23;20341;-71
2023/10/08 02:14:42;;;;;;;11.13;4.17;;;;;;;18.01;72.02;101332.97;6117387;23;20708;-69
2023/10/08 02:17:10;;;;;;;8.87;3.70;;;;;;;18.01;72.01;101327.59;6116878;23;20178;-69
2023/10/08 02:19:38;;;;;;;10.23;3.80;;;;;;;18.00;71.77;101323.25;6117635;23;20182;-70
2023/10/08 02:22:09;;;;;;;11.20;4.50;;;;;;;17.98;72.24;101324.44;6118282;23;20182;-71
2023/10/08 02:24:38;;;;;;;7.77;3.87;;;;;;;17.93;71.98;101334.88;6117140;23;20206;-71
2023/10/08 02:27:07;;;;;;;9.23;4.07;;;;;;;17.96;71.77;101339.88;6116954;23;20229;-70
2023/10/08 02:29:36;;;;;;;11.00;4.20;;;;;;;17.90;72.05;101341.41;6118403;23;20240;-68
2023/10/08 02:32:04;;;;;;;12.67;4.03;;;;;;;17.87;72.43;101355.16;6118027;23;20637;-70
2023/10/08 02:34:32;;;;;;;9.17;4.50;;;;;;;17.86;72.06;101349.97;6118489;23;20186;-70
2023/10/08 02:37:00;;;;;;;11.40;5.00;;;;;;;17.86;72.30;101352.66;6116874;23;20642;-69
2023/10/08 02:39:29;;;;;;;10.30;4.50;;;;;;;17.85;72.26;101349.16;6117457;23;20218;-71
2023/10/08 02:42:00;;;;;;;8.90;4.10;;;;;;;17.83;72.01;101350.34;6116557;23;20671;-71
2023/10/08 02:44:28;;;;;;;8.33;3.90;;;;;;;17.84;72.15;101347.47;6117610;23;20182;-70
2023/10/08 02:46:57;;;;;;;10.43;4.30;;;;;;;17.88;72.26;101354.16;6117341;23;20185;-67
2023/10/08 02:49:25;;;;;;;9.50;3.90;;;;;;;17.86;72.46;101355.34;6117772;23;20193;-71
2023/10/08 02:51:54;;;;;;;12.10;3.53;;;;;;;17.86;72.25;101356.16;6117742;23;20269;-72
2023/10/08 02:54:31;;;;;;;8.17;3.90;;;;;;;17.84;72.57;101355.53;6118364;23;20182;-70
2023/10/08 02:57:03;;;;;;;13.57;3.90;;;;;;;17.82;72.10;101354.03;6117680;23;20166;-70
2023/10/08 02:59:39;;;;;;;8.47;3.97;;;;;;;17.80;72.13;101350.66;6118918;23;20178;-70
2023/10/08 03:02:15;;;;;;;9.17;3.30;;;;;;;17.80;72.29;101345.31;6118849;23;20253;-72
2023/10/08 03:04:45;;;;;;;11.23;4.27;;;;;;;17.78;72.29;101341.94;6117607;23;20244;-69
2023/10/08 03:07:21;;;;;;;10.27;4.47;;;;;;;17.74;72.63;101340.66;6117612;23;20563;-71
2023/10/08 03:10:03;;;;;;;8.93;3.57;;;;;;;17.67;72.61;101341.34;6118081;23;20734;-69
2023/10/08 03:12:32;;;;;;;8.90;4.37;;;;;;;17.64;72.84;101340.84;6118736;23;20232;-71
2023/10/08 03:15:12;;;;;;;9.00;4.00;;;;;;;17.58;73.51;101334.31;6118462;23;20174;-68
2023/10/08 03:17:52;;;;;;;10.30;4.33;;;;;;;17.52;73.72;101331.44;6117389;23;20166;-70
2023/10/08 03:20:38;;;;;;;8.13;4.47;;;;;;;17.52;73.81;101331.44;6118025;23;20565;-70
2023/10/08 03:23:12;;;;;;;11.80;5.00;;;;;;;17.46;73.88;101329.47;6117898;23;20541;-71
2023/10/08 03:25:42;;;;;;;9.73;4.17;;;;;;;17.41;73.86;101326.47;6116743;23;20169;-70
2023/10/08 03:28:12;;;;;;;11.33;4.43;;;;;;;17.38;74.13;101319.59;6116183;23;20185;-69
2023/10/08 03:30:49;;;;;;;9.30;4.23;;;;;;;17.35;74.13;101322.63;6116116;23;20931;-70
2023/10/08 03:33:23;;;;;;;8.13;4.57;;;;;;;17.34;74.26;101322.78;6117809;23;20166;-73
2023/10/08 03:35:54;;;;;;;9.13;4.17;;;;;;;17.38;74.06;101324.13;6117457;23;20253;-70
2023/10/08 03:38:28;;;;;;;9.63;4.30;;;;;;;17.37;73.63;101336.69;6116652;23;20249;-68
2023/10/08 03:41:03;;;;;;;9.93;4.87;;;;;;;17.27;74.05;101344.94;6117346;23;20198;-69
2023/10/08 03:43:52;;;;;;;10.23;4.10;;;;;;;17.23;74.24;101353.50;6117459;23;20237;-69
2023/10/08 03:46:24;;;;;;;10.97;4.10;;;;;;;17.28;74.28;101351.97;6117296;23;20166;-69
2023/10/08 03:48:57;;;;;;;8.10;4.40;;;;;;;17.34;74.52;101349.59;6116660;23;20173;-70
2023/10/08 03:51:27;;;;;;;8.87;4.30;;;;;;;17.35;74.08;101349.44;6117837;23;20736;-67
2023/10/08 03:54:15;;;;;;;13.27;4.77;;;;;;;17.35;74.39;101360.16;6117069;23;20175;-68
2023/10/08 03:56:46;;;;;;;8.07;4.77;;;;;;;17.36;74.12;101369.03;6116967;23;20170;-69
2023/10/08 03:59:20;;;;;;;9.27;4.23;;;;;;;17.39;74.31;101368.72;6117145;23;20185;-70
2023/10/08 04:01:54;;;;;;;8.73;4.60;;;;;;;17.42;73.61;101379.91;6117216;23;20197;-70
2023/10/08 04:04:30;;;;;;;11.23;4.43;;;;;;;17.46;73.83;101375.88;6117214;23;20186;-68
2023/10/08 04:07:24;;;;;;;10.47;4.43;;;;;;;17.47;73.80;101372.22;6116901;23;20166;-69
2023/10/08 04:09:47;;;;;;;13.20;4.53;;;;;;;17.43;74.60;101376.22;6117493;23;20184;-71
2023/10/08 04:12:18;;;;;;;8.50;4.13;;;;;;;17.44;73.91;101369.03;6117015;23;20556;-67
2023/10/08 04:14:47;;;;;;;9.73;4.60;;;;;;;17.43;74.27;101368.19;6117286;23;20255;-70
2023/10/08 04:17:22;;;;;;;6.90;3.73;;;;;;;17.45;74.51;101362.66;6116490;23;20184;-70
2023/10/08 04:19:52;;;;;;;10.70;4.17;;;;;;;17.46;73.76;101365.16;6116285;23;20165;-69
2023/10/08 04:22:19;;;;;;;10.30;4.47;;;;;;;17.47;73.69;101366.84;6117134;23;20198;-69
2023/10/08 04:24:50;;;;;;;11.37;4.53;;;;;;;17.49;73.42;101372.03;6118248;23;20269;-70
2023/10/08 04:27:21;;;;;;;10.03;4.50;;;;;;;17.48;73.38;101363.16;6115874;23;20205;-68
2023/10/08 04:29:50;;;;;;;7.77;4.30;;;;;;;17.46;74.03;101373.22;6117079;23;20229;-70
2023/10/08 04:32:24;;;;;;;10.30;4.87;;;;;;;17.40;74.75;101371.22;6116347;23;20969;-69
2023/10/08 04:34:56;;;;;;;10.57;5.07;;;;;;;17.41;74.08;101375.59;6117031;23;20285;-70
2023/10/08 04:37:32;;;;;;;11.53;3.93;;;;;;;17.39;74.47;101374.91;6115603;23;20178;-68
2023/10/08 04:39:59;;;;;;;12.27;4.73;;;;;;;17.37;74.13;101371.56;6117780;23;20170;-69
2023/10/08 04:42:27;;;;;;;10.80;4.30;;;;;;;17.37;74.35;101376.91;6117282;23;20276;-69
2023/10/08 04:44:55;;;;;;;10.13;4.10;;;;;;;17.38;74.12;101373.22;6118005;23;20182;-71
2023/10/08 04:47:34;;;;;;;9.97;5.10;;;;;;;17.41;73.98;101366.69;6118567;23;20240;-71
2023/10/08 04:50:05;;;;;;;9.70;4.23;;;;;;;17.42;73.91;101371.88;6118711;23;20169;-70
2023/10/08 04:52:45;;;;;;;10.13;4.47;;;;;;;17.42;73.93;101365.66;6119945;23;20226;-69
2023/10/08 04:55:19;;;;;;;10.47;4.50;;;;;;;17.39;74.08;101349.94;6120106;23;20238;-69
2023/10/08 04:57:49;;;;;;;12.60;5.33;;;;;;;17.33;74.47;101351.44;6118431;23;20224;-70
2023/10/08 05:00:26;;;;;;;8.77;4.47;;;;;;;17.28;74.28;101348.44;6119106;23;20184;-69
2023/10/08 05:03:03;;;;;;;9.90;4.27;;;;;;;17.20;74.76;101348.47;6119637;23;20170;-70
2023/10/08 05:05:51;;;;;;;10.20;4.70;;;;;;;17.12;74.50;101346.63;6119057;23;20192;-70
2023/10/08 05:08:28;;;;;;;8.80;4.80;;;;;;;17.06;74.87;101346.47;6118414;23;20748;-70
2023/10/08 05:13:55;;;;;;;11.17;4.60;;;;;;;17.12;75.29;101345.78;6116343;23;20242;-68
2023/10/08 05:19:24;;;;;;;8.27;4.37;;;;;;;17.12;75.33;101364.56;6115281;23;20631;-69
2023/10/08 05:22:05;;;;;;;7.13;4.53;;;;;;;17.16;74.81;101372.06;6119382;23;20170;-71
2023/10/08 05:24:38;;;;;;;10.87;4.63;;;;;;;17.08;75.63;101360.53;6118895;23;20545;-70
2023/10/08 05:32:51;;;;;;;9.93;4.60;;;;;;;16.92;76.73;101366.72;6117848;23;20687;-70
2023/10/08 05:35:38;;;;;;;10.23;4.50;;;;;;;16.90;76.59;101361.53;6118156;23;20208;-70
2023/10/08 05:38:16;;;;;;;10.30;4.73;;;;;;;16.88;76.97;101363.56;6119441;23;20205;-70
2023/10/08 05:43:48;;;;;;;8.17;4.60;;;;;;;16.75;77.88;101352.50;6118667;23;20206;-69
2023/10/08 05:46:39;;;;;;;16.03;4.53;;;;;;;16.76;77.55;101361.38;6118803;23;20231;-69
2023/10/08 05:49:26;;;;;;;14.93;4.97;;;;;;;16.71;77.79;101369.91;6118993;23;20329;-69
2023/10/08 05:52:24;;;;;;;8.40;4.97;;;;;;;16.69;78.06;101371.09;6118297;23;20752;-71
2023/10/08 05:57:46;;;;;;;11.07;4.90;;;;;;;16.61;78.07;101369.25;6117661;23;20632;-69
2023/10/08 06:03:31;;;;;;;11.53;5.53;;;;;;;16.59;77.74;101371.22;6118564;23;20281;-71
2023/10/08 11:10:46;;;;;;;11.75;4.70;;;;;;;21.99;55.80;101492.47;5890554;24;20187;-75
2023/10/08 12:30:42;;;;;;;11.40;5.10;;;;;;;24.15;49.36;101452.50;5955440;24;20221;-72
2023/10/08 12:33:12;;;;;;;7.78;4.75;;;;;;;24.03;49.70;101457.75;5946864;24;20198;-72
2023/10/08 12:35:41;;;;;;;12.10;5.30;;;;;;;24.00;49.79;101452.78;5962394;23;20185;-72
2023/10/08 12:38:09;;;;;;;7.80;4.47;;;;;;;23.94;49.84;101448.19;5999324;23;20753;-73
2023/10/08 12:40:47;;;;;;;8.25;4.60;;;;;;;24.25;49.36;101450.22;5998555;23;20189;-72
2023/10/08 12:43:18;;;;;;;12.25;5.60;;;;;;;24.69;48.40;101449.38;6023338;23;20814;-72
2023/10/08 12:45:56;;;;;;;9.95;5.13;;;;;;;24.63;48.18;101450.22;6087972;23;20659;-72
2023/10/08 12:48:27;;;;;;;10.70;5.05;;;;;;;24.42;48.52;101447.84;6086424;23;20280;-71
2023/10/08 12:50:57;;;;;;;12.50;5.32;;;;;;;24.04;49.17;101440.44;6086717;23;20189;-71
2023/10/08 12:53:33;;;;;;;10.52;5.22;;;;;;;23.78;49.98;101448.66;6088784;23;20207;-66
2023/10/08 12:56:05;;;;;;;10.98;5.45;;;;;;;23.63;50.57;101438.88;6088551;23;20194;-72
2023/10/08 12:58:41;;;;;;;13.43;5.38;;;;;;;23.44;50.77;101431.59;6086925;23;20227;-71
2023/10/08 13:01:10;;;;;;;10.23;5.05;;;;;;;23.36;50.99;101425.56;6087761;23;20603;-73
2023/10/08 13:03:41;;;;;;;9.43;4.65;;;;;;;23.29;51.72;101430.97;6088022;23;20179;-74
2023/10/08 13:09:14;;;;;;;14.38;5.43;;;;;;;23.17;53.11;101432.63;6091148;23;20186;-78
2023/10/08 13:12:26;;;;;;;33.13;5.30;;;;;;;23.24;52.94;101433.47;6095614;23;20600;-76
2023/10/08 13:18:56;;;;;;;17.25;5.93;;;;;;;23.28;53.45;101418.47;6058867;23;20176;-78
2023/10/08 13:21:25;;;;;;;15.27;5.75;;;;;;;23.20;53.44;101424.94;6059194;23;20168;-76
2023/10/08 13:23:53;;;;;;;8.50;4.55;;;;;;;23.22;53.50;101420.13;6084092;23;20479;-74
2023/10/08 13:26:24;;;;;;;12.68;5.53;;;;;;;23.11;53.75;101411.81;6090470;23;20179;-73
2023/10/08 13:28:52;;;;;;;11.63;5.05;;;;;;;23.12;53.22;101414.31;6089484;23;20201;-72
2023/10/08 13:31:21;;;;;;;11.43;5.53;;;;;;;23.10;53.77;101410.16;6090630;23;20183;-74
2023/10/08 13:33:51;;;;;;;15.82;5.18;;;;;;;23.08;53.87;101409.53;6089601;23;20840;-72
2023/10/08 13:36:21;;;;;;;10.75;4.80;;;;;;;23.08;54.04;101414.94;6091652;23;20187;-72
2023/10/08 13:38:49;;;;;;;11.35;5.15;;;;;;;23.03;53.81;101420.16;6089595;23;20616;-71
2023/10/08 13:41:18;;;;;;;12.27;5.13;;;;;;;22.96;53.91;101414.72;6090260;23;20716;-72
2023/10/08 13:43:47;;;;;;;9.95;5.05;;;;;;;22.95;53.68;101410.38;6090949;23;20183;-72
2023/10/08 13:46:17;;;;;;;9.90;4.82;;;;;;;22.84;54.37;101406.38;6090231;23;20201;-72
2023/10/08 13:48:48;;;;;;;12.98;5.00;;;;;;;22.76;54.68;101397.63;6090603;23;20226;-70
2023/10/08 13:51:20;;;;;;;16.67;5.05;;;;;;;22.63;54.95;101408.38;6091220;23;20177;-72
2023/10/08 13:53:53;;;;;;;13.35;5.00;;;;;;;22.53;55.68;101414.19;6089291;23;20191;-71
2023/10/08 13:56:26;;;;;;;13.82;5.63;;;;;;;22.42;55.68;101407.53;6089264;23;20164;-72
2023/10/08 13:59:03;;;;;;;14.40;6.00;;;;;;;22.31;55.71;101407.25;6089615;23;20171;-71
2023/10/08 14:01:33;;;;;;;13.50;5.65;;;;;;;22.22;56.60;101403.06;6089395;23;20190;-71
2023/10/08 14:04:05;;;;;;;12.95;5.40;;;;;;;22.20;56.66;101395.16;6089803;23;20171;-71
2023/10/08 14:06:34;;;;;;;12.27;5.35;;;;;;;22.20;57.00;101392.47;6090139;23;20319;-69
2023/10/08 14:09:09;;;;;;;12.65;5.10;;;;;;;22.21;56.52;101393.28;6089370;23;20246;-72
2023/10/08 14:11:46;;;;;;;11.50;5.47;;;;;;;22.22;56.20;101394.97;6090373;23;20175;-74
2023/10/08 14:14:50;;;;;;;13.07;5.40;;;;;;;22.17;57.06;101413.63;6091050;23;20218;-74
2023/10/08 14:20:23;;;;;;;16.02;5.57;;;;;;;22.14;56.87;101393.28;6091500;23;20214;-74
2023/10/08 14:22:57;;;;;;;13.07;5.57;;;;;;;22.11;56.57;101378.28;6090914;23;20179;-74
2023/10/08 14:26:03;;;;;;;13.48;5.57;;;;;;;22.10;57.11;101386.59;6091091;23;20174;-74
2023/10/08 14:31:56;;;;;;;13.95;4.70;;;;;;;22.03;57.41;101383.88;6089104;23;20221;-74
2023/10/08 14:43:38;;;;;;;10.95;5.28;;;;;;;22.07;57.00;101377.03;6091110;23;20250;-74
2023/10/08 14:59:17;;;;;;;13.38;5.43;;;;;;;22.17;56.66;101348.78;6086035;23;20185;-75
2023/10/08 15:01:49;;;;;;;12.95;5.28;;;;;;;22.16;57.08;101341.75;6091358;23;20193;-74
2023/10/08 15:04:32;;;;;;;13.20;5.57;;;;;;;22.19;56.83;101335.94;6091465;23;20234;-74
2023/10/08 15:07:11;;;;;;;12.90;5.75;;;;;;;22.11;57.19;101340.47;6090499;23;20174;-74
2023/10/08 15:09:44;;;;;;;17.40;5.75;;;;;;;22.05;57.13;101340.47;6089720;23;20175;-74
2023/10/08 15:12:25;;;;;;;16.77;6.95;;;;;;;22.01;57.38;101334.63;6088786;23;20193;-74
2023/10/08 15:15:14;;;;;;;15.93;6.28;;;;;;;21.97;57.46;101330.69;6088685;23;20207;-73
2023/10/08 15:17:45;;;;;;;12.88;5.90;;;;;;;21.94;57.71;101332.91;6090294;23;20457;-74
2023/10/08 15:20:19;;;;;;;15.90;5.97;;;;;;;21.92;57.63;101340.38;6089931;23;20187;-73
2023/10/08 15:22:58;;;;;;;14.13;5.45;;;;;;;21.90;58.12;101340.56;6091276;23;20183;-73
2023/10/08 15:25:26;;;;;;;14.48;5.65;;;;;;;21.89;58.47;101346.19;6090963;23;20178;-73
2023/10/08 15:28:06;;;;;;;11.50;5.57;;;;;;;21.89;58.46;101340.78;6087902;23;20238;-72
2023/10/08 15:30:35;;;;;;;13.98;5.22;;;;;;;21.88;58.38;101331.84;6089089;23;20181;-70
2023/10/08 15:33:03;;;;;;;11.18;4.78;;;;;;;21.89;57.87;101335.38;6088639;23;20210;-70
2023/10/08 15:35:32;;;;;;;14.35;5.97;;;;;;;21.93;57.61;101342.03;6088411;23;20190;-71
2023/10/08 15:38:03;;;;;;;10.10;5.15;;;;;;;21.93;57.89;101339.34;6088070;23;20183;-71
2023/10/08 15:40:33;;;;;;;12.57;5.60;;;;;;;21.91;57.65;101336.81;6089069;23;20222;-70
2023/10/08 15:43:00;;;;;;;9.20;5.35;;;;;;;21.87;58.28;101327.47;6090121;23;20286;-70
2023/10/08 15:45:29;;;;;;;13.38;5.32;;;;;;;21.85;58.28;101328.72;6087905;23;20473;-71
2023/10/08 15:47:59;;;;;;;17.60;8.32;;;;;;;21.84;58.85;101330.56;6087387;23;20269;-74
2023/10/08 15:50:32;;;;;;;18.60;8.25;;;;;;;21.81;59.12;101322.06;6089508;23;20250;-74
2023/10/08 15:53:15;;;;;;;36.70;15.50;;;;;;;21.79;60.02;101311.47;6090753;23;20175;-74
2023/10/08 15:55:50;;;;;;;34.63;18.90;;;;;;;21.80;59.39;101305.03;6089968;23;20284;-74
2023/10/08 16:01:03;;;;;;;22.50;12.77;;;;;;;21.89;59.70;101309.22;6090054;23;20627;-74
2023/10/08 16:09:28;;;;;;;17.55;6.85;;;;;;;21.79;60.38;101306.06;6087589;23;20183;-74
2023/10/08 16:12:02;;;;;;;17.33;6.40;;;;;;;21.80;60.96;101299.63;6090110;23;20182;-74
2023/10/08 16:14:31;;;;;;;15.27;5.97;;;;;;;21.80;60.96;101299.63;6087644;23;20206;-70
2023/10/08 16:16:58;;;;;;;15.98;5.90;;;;;;;21.78;60.78;101285.50;6087356;23;20183;-70
2023/10/08 16:19:28;;;;;;;16.13;5.40;;;;;;;21.81;61.12;101295.91;6087915;23;20167;-70
2023/10/08 16:21:56;;;;;;;14.77;5.85;;;;;;;21.78;61.20;101294.44;6087645;23;20262;-69
2023/10/08 16:24:25;;;;;;;19.30;5.75;;;;;;;21.75;61.16;101294.81;6087922;23;20190;-70
2023/10/08 16:26:53;;;;;;;15.85;6.60;;;;;;;21.70;61.63;101299.16;6087531;23;20183;-71
2023/10/08 16:29:21;;;;;;;15.32;5.90;;;;;;;21.63;61.79;101301.84;6088337;23;20189;-71
2023/10/08 16:31:48;;;;;;;16.73;6.57;;;;;;;21.56;62.33;101309.03;6089545;23;20543;-71
2023/10/08 16:34:17;;;;;;;16.42;6.10;;;;;;;21.51;62.46;101321.47;6088037;23;20366;-70
2023/10/08 16:36:46;;;;;;;19.40;6.10;;;;;;;21.45;62.65;101327.69;6087101;23;20261;-70
2023/10/08 16:39:17;;;;;;;19.80;6.45;;;;;;;21.40;62.98;101326.41;6088296;23;20206;-70
2023/10/08 16:41:45;;;;;;;13.57;6.03;;;;;;;21.34;63.29;101327.19;6088014;23;20214;-71
2023/10/08 16:44:13;;;;;;;12.00;5.60;;;;;;;21.29;63.50;101326.94;6086053;23;20206;-70
2023/10/08 16:46:42;;;;;;;17.45;6.50;;;;;;;21.24;63.67;101333.97;6085705;23;20270;-70
2023/10/08 16:49:10;;;;;;;16.53;6.00;;;;;;;21.19;64.25;101334.56;6087328;23;20619;-72
2023/10/08 16:51:38;;;;;;;16.47;6.20;;;;;;;21.14;64.85;101339.69;6087041;23;20187;-74
2023/10/08 16:54:14;;;;;;;16.90;6.27;;;;;;;21.08;65.10;101337.78;6089555;23;20318;-72
2023/10/08 16:56:43;;;;;;;15.40;6.37;;;;;;;21.02;65.54;101338.56;6092845;23;20210;-72
2023/10/08 16:59:14;;;;;;;15.67;6.17;;;;;;;20.96;65.90;101329.38;6093816;23;20230;-74
2023/10/08 17:01:42;;;;;;;12.77;5.40;;;;;;;20.91;66.14;101337.22;6095178;23;20182;-74
2023/10/08 17:04:12;;;;;;;13.90;5.43;;;;;;;20.86;66.36;101344.22;6096273;23;20488;-73
2023/10/08 17:06:40;;;;;;;12.33;6.43;;;;;;;20.83;66.43;101344.63;6100541;23;20185;-75
2023/10/08 17:09:13;;;;;;;15.20;6.47;;;;;;;20.81;66.75;101346.66;6115213;23;20261;-75
2023/10/08 17:11:45;;;;;;;11.23;6.10;;;;;;;20.76;66.56;101344.53;6100362;23;20170;-74
2023/10/08 17:14:14;;;;;;;13.27;6.43;;;;;;;20.70;67.15;101345.31;6093158;23;20302;-74
2023/10/08 17:16:42;;;;;;;13.53;6.00;;;;;;;20.64;67.15;101346.94;6088562;23;20183;-74
2023/10/08 17:19:10;;;;;;;16.83;7.40;;;;;;;20.60;67.04;101344.81;6087426;23;20266;-74
2023/10/08 17:21:39;;;;;;;16.03;6.87;;;;;;;20.57;67.06;101345.22;6087579;23;20179;-75
2023/10/08 17:24:08;;;;;;;12.70;6.87;;;;;;;20.52;66.96;101340.38;6088156;23;20691;-76
2023/10/08 17:26:40;;;;;;;13.13;7.07;;;;;;;20.50;67.42;101338.91;6088803;23;20178;-74
2023/10/08 17:29:08;;;;;;;13.30;6.73;;;;;;;20.45;67.77;101339.47;6088013;23;20182;-75
2023/10/08 17:31:37;;;;;;;14.33;6.37;;;;;;;20.37;68.09;101334.22;6087619;23;20215;-72
2023/10/08 17:34:06;;;;;;;19.13;7.40;;;;;;;20.32;68.35;101331.22;6087647;23;20235;-70
2023/10/08 17:36:35;;;;;;;16.37;7.37;;;;;;;20.29;68.73;101337.84;6087935;23;20274;-69
2023/10/08 17:39:08;;;;;;;19.93;7.37;;;;;;;20.27;68.71;101337.19;6085670;23;20182;-71
2023/10/08 17:41:38;;;;;;;15.93;7.67;;;;;;;20.24;69.09;101336.72;6086531;23;20202;-72
2023/10/08 17:44:06;;;;;;;17.47;8.47;;;;;;;20.21;69.44;101331.75;6087446;23;20179;-70
2023/10/08 17:46:34;;;;;;;21.60;10.87;;;;;;;20.19;69.23;101331.09;6087028;23;20183;-70
2023/10/08 17:49:04;;;;;;;24.53;11.20;;;;;;;20.15;69.01;101333.31;6087592;23;20546;-71
2023/10/08 17:51:34;;;;;;;20.17;10.27;;;;;;;20.14;69.23;101333.53;6089438;23;20186;-70
2023/10/08 17:54:04;;;;;;;15.60;8.97;;;;;;;20.11;69.67;101328.50;6088452;23;20520;-71
2023/10/08 17:56:32;;;;;;;18.33;8.93;;;;;;;20.08;69.55;101327.03;6089156;23;20226;-71
2023/10/08 17:59:01;;;;;;;17.27;8.40;;;;;;;20.07;69.69;101321.81;6088229;23;20393;-71
2023/10/08 18:01:29;;;;;;;13.67;7.77;;;;;;;20.07;69.84;101319.13;6087295;23;20190;-72
2023/10/08 18:03:56;;;;;;;17.93;8.17;;;;;;;20.04;70.26;101323.06;6088343;23;20239;-71
2023/10/08 18:06:24;;;;;;;13.03;7.77;;;;;;;20.03;70.39;101325.94;6087438;23;20675;-71
2023/10/08 18:08:54;;;;;;;14.73;7.93;;;;;;;20.02;70.47;101318.88;6087763;23;20183;-72
2023/10/08 18:11:22;;;;;;;21.50;8.57;;;;;;;20.00;70.23;101320.91;6088793;23;20258;-71
2023/10/08 18:13:51;;;;;;;16.00;8.37;;;;;;;19.97;70.63;101315.91;6089480;23;20210;-70
2023/10/08 18:16:21;;;;;;;18.63;9.33;;;;;;;19.98;71.28;101328.34;6087904;23;20238;-72
2023/10/08 18:18:49;;;;;;;15.43;8.30;;;;;;;19.93;71.45;101320.84;6087009;23;20523;-71
2023/10/08 18:21:18;;;;;;;17.17;9.13;;;;;;;19.89;71.95;101315.00;6088622;23;20193;-72
2023/10/08 18:23:48;;;;;;;18.13;8.73;;;;;;;19.88;71.78;101316.00;6088088;23;20539;-72
2023/10/08 18:26:16;;;;;;;24.97;9.07;;;;;;;19.84;72.28;101312.03;6088460;23;20479;-71
2023/10/08 18:28:44;;;;;;;22.57;9.17;;;;;;;19.83;72.46;101305.00;6086672;23;21014;-72
2023/10/08 18:31:12;;;;;;;23.27;12.13;;;;;;;19.80;72.96;101304.53;6089277;23;20570;-72
2023/10/08 18:33:42;;;;;;;17.03;9.63;;;;;;;19.77;72.63;101308.44;6087930;23;20183;-71
2023/10/08 18:36:12;;;;;;;21.07;10.37;;;;;;;19.74;73.23;101299.91;6088632;23;20210;-71
2023/10/08 18:38:41;;;;;;;18.37;9.20;;;;;;;19.71;73.50;101298.41;6086386;23;20242;-71
2023/10/08 18:41:12;;;;;;;19.10;9.97;;;;;;;19.67;74.17;101299.81;6089195;23;20183;-76
2023/10/08 18:46:37;;;;;;;20.87;9.97;;;;;;;19.52;74.65;101299.00;6089905;23;20174;-76
2023/10/08 18:49:14;;;;;;;17.83;9.77;;;;;;;19.50;74.53;101303.72;6090690;23;20182;-76
2023/10/08 18:51:48;;;;;;;15.63;8.77;;;;;;;19.48;74.76;101306.59;6090914;23;20214;-76
2023/10/08 18:54:56;;;;;;;19.97;9.90;;;;;;;19.49;74.41;101310.97;6090921;23;20170;-76
2023/10/08 18:57:40;;;;;;;17.53;10.40;;;;;;;19.46;74.48;101310.47;6090777;23;20182;-78
2023/10/08 19:00:10;;;;;;;17.13;9.53;;;;;;;19.45;74.41;101306.09;6094937;23;20194;-79
2023/10/08 19:02:40;;;;;;;15.63;8.97;;;;;;;19.43;74.75;101300.94;6093348;23;20172;-77
2023/10/08 19:05:11;;;;;;;17.13;9.53;;;;;;;19.41;74.54;101300.28;6066955;23;20191;-79
2023/10/08 19:07:40;;;;;;;19.23;8.73;;;;;;;19.38;74.78;101302.47;6092470;23;20171;-77
2023/10/08 19:13:19;;;;;;;19.93;10.60;;;;;;;19.34;74.08;101301.19;6094444;23;20210;-80
2023/10/08 19:15:50;;;;;;;16.00;9.77;;;;;;;19.32;74.60;101296.00;6092445;23;20230;-78